sensor_id;sensor_type;location;lat;lon;timestamp;P1;durP1;ratioP1;P2;durP2;ratioP2
37267;SDS011;23154;52.542;13.362;2023-05-07T00:01:54;19.70;;;8.88;;
37267;SDS011;23154;52.542;13.362;2023-05-07T00:04:20;19.60;;;8.50;;
37267;SDS011;23154;52.542;13.362;2023-05-07T00:06:46;20.33;;;8.38;;
37267;SDS011;23154;52.542;13.362;2023-05-07T00:09:12;20.77;;;8.63;;
37267;SDS011;23154;52.542;13.362;2023-05-07T00:11:39;22.85;;;8.20;;
37267;SDS011;23154;52.542;13.362;2023-05-07T00:14:05;20.08;;;8.75;;
37267;SDS011;23154;52.542;13.362;2023-05-07T00:16:31;20.38;;;9.20;;
37267;SDS011;23154;52.542;13.362;2023-05-07T00:18:57;23.10;;;9.15;;
37267;SDS011;23154;52.542;13.362;2023-05-07T00:21:23;21.50;;;8.63;;
37267;SDS011;23154;52.542;13.362;2023-05-07T00:23:51;19.45;;;8.30;;
37267;SDS011;23154;52.542;13.362;2023-05-07T00:26:17;18.52;;;8.32;;
37267;SDS011;23154;52.542;13.362;2023-05-07T00:28:44;21.35;;;8.52;;
37267;SDS011;23154;52.542;13.362;2023-05-07T00:31:10;18.70;;;7.43;;
37267;SDS011;23154;52.542;13.362;2023-05-07T00:33:36;19.55;;;7.65;;
37267;SDS011;23154;52.542;13.362;2023-05-07T00:36:02;18.75;;;7.47;;
37267;SDS011;23154;52.542;13.362;2023-05-07T00:38:28;20.10;;;8.20;;
37267;SDS011;23154;52.542;13.362;2023-05-07T00:40:54;21.08;;;8.27;;
37267;SDS011;23154;52.542;13.362;2023-05-07T00:43:20;21.58;;;9.10;;
37267;SDS011;23154;52.542;13.362;2023-05-07T00:45:46;18.48;;;7.70;;
37267;SDS011;23154;52.542;13.362;2023-05-07T00:48:12;19.40;;;8.25;;
37267;SDS011;23154;52.542;13.362;2023-05-07T00:50:39;20.73;;;8.20;;
37267;SDS011;23154;52.542;13.362;2023-05-07T00:53:05;19.85;;;8.40;;
37267;SDS011;23154;52.542;13.362;2023-05-07T00:55:32;19.45;;;7.45;;
37267;SDS011;23154;52.542;13.362;2023-05-07T00:57:58;18.15;;;8.20;;
37267;SDS011;23154;52.542;13.362;2023-05-07T01:00:24;21.10;;;8.10;;
37267;SDS011;23154;52.542;13.362;2023-05-07T01:02:50;19.27;;;8.00;;
37267;SDS011;23154;52.542;13.362;2023-05-07T01:05:17;19.45;;;8.68;;
37267;SDS011;23154;52.542;13.362;2023-05-07T01:07:44;17.65;;;7.95;;
37267;SDS011;23154;52.542;13.362;2023-05-07T01:10:10;20.60;;;8.80;;
37267;SDS011;23154;52.542;13.362;2023-05-07T01:12:37;18.92;;;7.45;;
37267;SDS011;23154;52.542;13.362;2023-05-07T01:15:04;18.08;;;8.13;;
37267;SDS011;23154;52.542;13.362;2023-05-07T01:17:34;23.05;;;9.20;;
37267;SDS011;23154;52.542;13.362;2023-05-07T01:20:00;21.23;;;8.82;;
37267;SDS011;23154;52.542;13.362;2023-05-07T01:22:36;19.02;;;8.70;;
37267;SDS011;23154;52.542;13.362;2023-05-07T01:25:03;22.05;;;8.73;;
37267;SDS011;23154;52.542;13.362;2023-05-07T01:27:29;19.20;;;8.30;;
37267;SDS011;23154;52.542;13.362;2023-05-07T01:29:55;19.45;;;8.60;;
37267;SDS011;23154;52.542;13.362;2023-05-07T01:32:23;17.85;;;7.75;;
37267;SDS011;23154;52.542;13.362;2023-05-07T01:34:51;20.02;;;8.25;;
37267;SDS011;23154;52.542;13.362;2023-05-07T01:37:18;18.55;;;7.78;;
37267;SDS011;23154;52.542;13.362;2023-05-07T01:39:44;22.63;;;8.50;;
37267;SDS011;23154;52.542;13.362;2023-05-07T01:42:10;21.30;;;8.68;;
37267;SDS011;23154;52.542;13.362;2023-05-07T01:44:36;17.15;;;7.57;;
37267;SDS011;23154;52.542;13.362;2023-05-07T01:47:02;18.55;;;7.95;;
37267;SDS011;23154;52.542;13.362;2023-05-07T01:49:28;19.52;;;8.75;;
37267;SDS011;23154;52.542;13.362;2023-05-07T01:51:55;19.85;;;8.27;;
37267;SDS011;23154;52.542;13.362;2023-05-07T01:54:27;18.63;;;8.02;;
37267;SDS011;23154;52.542;13.362;2023-05-07T01:56:55;19.17;;;8.48;;
37267;SDS011;23154;52.542;13.362;2023-05-07T01:59:22;18.70;;;8.13;;
37267;SDS011;23154;52.542;13.362;2023-05-07T02:01:48;19.10;;;8.05;;
37267;SDS011;23154;52.542;13.362;2023-05-07T02:04:14;17.77;;;7.88;;
37267;SDS011;23154;52.542;13.362;2023-05-07T02:06:40;18.23;;;7.68;;
37267;SDS011;23154;52.542;13.362;2023-05-07T02:09:06;19.80;;;8.35;;
37267;SDS011;23154;52.542;13.362;2023-05-07T02:11:33;19.90;;;8.55;;
37267;SDS011;23154;52.542;13.362;2023-05-07T02:14:00;18.20;;;7.82;;
37267;SDS011;23154;52.542;13.362;2023-05-07T02:16:26;20.30;;;7.97;;
37267;SDS011;23154;52.542;13.362;2023-05-07T02:18:52;20.23;;;8.90;;
37267;SDS011;23154;52.542;13.362;2023-05-07T02:21:18;17.38;;;7.35;;
37267;SDS011;23154;52.542;13.362;2023-05-07T02:23:44;19.05;;;8.18;;
37267;SDS011;23154;52.542;13.362;2023-05-07T02:26:10;20.08;;;7.85;;
37267;SDS011;23154;52.542;13.362;2023-05-07T02:28:36;20.73;;;8.13;;
37267;SDS011;23154;52.542;13.362;2023-05-07T02:31:03;18.38;;;7.93;;
37267;SDS011;23154;52.542;13.362;2023-05-07T02:33:29;20.45;;;7.82;;
37267;SDS011;23154;52.542;13.362;2023-05-07T02:35:55;18.77;;;7.93;;
37267;SDS011;23154;52.542;13.362;2023-05-07T02:38:22;23.55;;;8.15;;
37267;SDS011;23154;52.542;13.362;2023-05-07T02:40:48;19.10;;;7.50;;
37267;SDS011;23154;52.542;13.362;2023-05-07T02:43:14;19.00;;;7.53;;
37267;SDS011;23154;52.542;13.362;2023-05-07T02:45:40;20.50;;;8.35;;
37267;SDS011;23154;52.542;13.362;2023-05-07T02:48:06;20.00;;;7.68;;
37267;SDS011;23154;52.542;13.362;2023-05-07T02:50:32;18.42;;;7.07;;
37267;SDS011;23154;52.542;13.362;2023-05-07T02:52:58;21.90;;;8.00;;
37267;SDS011;23154;52.542;13.362;2023-05-07T02:55:24;18.85;;;7.68;;
37267;SDS011;23154;52.542;13.362;2023-05-07T02:57:50;19.30;;;7.90;;
37267;SDS011;23154;52.542;13.362;2023-05-07T03:00:17;17.63;;;7.88;;
37267;SDS011;23154;52.542;13.362;2023-05-07T03:02:44;17.10;;;7.38;;
37267;SDS011;23154;52.542;13.362;2023-05-07T03:05:10;20.10;;;8.63;;
37267;SDS011;23154;52.542;13.362;2023-05-07T03:07:36;19.60;;;8.05;;
37267;SDS011;23154;52.542;13.362;2023-05-07T03:10:03;19.50;;;7.68;;
37267;SDS011;23154;52.542;13.362;2023-05-07T03:12:30;19.65;;;7.63;;
37267;SDS011;23154;52.542;13.362;2023-05-07T03:14:56;18.35;;;7.40;;
37267;SDS011;23154;52.542;13.362;2023-05-07T03:17:22;17.88;;;7.47;;
37267;SDS011;23154;52.542;13.362;2023-05-07T03:19:48;19.13;;;7.68;;
37267;SDS011;23154;52.542;13.362;2023-05-07T03:22:14;18.17;;;7.30;;
37267;SDS011;23154;52.542;13.362;2023-05-07T03:24:40;18.50;;;7.45;;
37267;SDS011;23154;52.542;13.362;2023-05-07T03:27:06;20.85;;;7.50;;
37267;SDS011;23154;52.542;13.362;2023-05-07T03:29:32;16.77;;;6.82;;
37267;SDS011;23154;52.542;13.362;2023-05-07T03:31:58;18.58;;;7.20;;
37267;SDS011;23154;52.542;13.362;2023-05-07T03:34:24;18.48;;;7.05;;
37267;SDS011;23154;52.542;13.362;2023-05-07T03:36:51;18.13;;;7.28;;
37267;SDS011;23154;52.542;13.362;2023-05-07T03:39:17;21.80;;;8.02;;
37267;SDS011;23154;52.542;13.362;2023-05-07T03:41:43;17.60;;;6.93;;
37267;SDS011;23154;52.542;13.362;2023-05-07T03:44:09;18.05;;;7.10;;
37267;SDS011;23154;52.542;13.362;2023-05-07T03:46:35;16.90;;;6.68;;
37267;SDS011;23154;52.542;13.362;2023-05-07T03:49:01;19.48;;;7.40;;
37267;SDS011;23154;52.542;13.362;2023-05-07T03:51:27;17.08;;;7.18;;
37267;SDS011;23154;52.542;13.362;2023-05-07T03:53:52;17.42;;;7.63;;
37267;SDS011;23154;52.542;13.362;2023-05-07T03:56:19;19.58;;;7.55;;
37267;SDS011;23154;52.542;13.362;2023-05-07T03:58:46;18.52;;;6.80;;
37267;SDS011;23154;52.542;13.362;2023-05-07T04:01:13;18.08;;;7.55;;
37267;SDS011;23154;52.542;13.362;2023-05-07T04:03:39;18.75;;;7.88;;
37267;SDS011;23154;52.542;13.362;2023-05-07T04:06:05;17.45;;;7.53;;
37267;SDS011;23154;52.542;13.362;2023-05-07T04:08:31;18.00;;;7.10;;
37267;SDS011;23154;52.542;13.362;2023-05-07T04:10:57;18.98;;;7.32;;
37267;SDS011;23154;52.542;13.362;2023-05-07T04:13:24;17.88;;;7.53;;
37267;SDS011;23154;52.542;13.362;2023-05-07T04:15:50;17.73;;;6.35;;
37267;SDS011;23154;52.542;13.362;2023-05-07T04:18:16;20.25;;;7.72;;
37267;SDS011;23154;52.542;13.362;2023-05-07T04:20:43;18.98;;;7.43;;
37267;SDS011;23154;52.542;13.362;2023-05-07T04:23:09;17.23;;;6.80;;
37267;SDS011;23154;52.542;13.362;2023-05-07T04:25:35;16.85;;;6.68;;
37267;SDS011;23154;52.542;13.362;2023-05-07T04:28:01;19.30;;;7.10;;
37267;SDS011;23154;52.542;13.362;2023-05-07T04:30:27;16.75;;;7.13;;
37267;SDS011;23154;52.542;13.362;2023-05-07T04:32:53;17.17;;;6.65;;
37267;SDS011;23154;52.542;13.362;2023-05-07T04:35:19;17.40;;;6.75;;
37267;SDS011;23154;52.542;13.362;2023-05-07T04:37:45;17.40;;;6.68;;
37267;SDS011;23154;52.542;13.362;2023-05-07T04:40:11;15.70;;;6.38;;
37267;SDS011;23154;52.542;13.362;2023-05-07T04:42:37;17.65;;;6.95;;
37267;SDS011;23154;52.542;13.362;2023-05-07T04:45:03;16.92;;;6.85;;
37267;SDS011;23154;52.542;13.362;2023-05-07T04:47:29;19.02;;;6.90;;
37267;SDS011;23154;52.542;13.362;2023-05-07T04:49:57;15.70;;;6.10;;
37267;SDS011;23154;52.542;13.362;2023-05-07T04:52:23;16.50;;;7.05;;
37267;SDS011;23154;52.542;13.362;2023-05-07T04:54:49;17.83;;;6.32;;
37267;SDS011;23154;52.542;13.362;2023-05-07T04:57:15;16.08;;;6.57;;
37267;SDS011;23154;52.542;13.362;2023-05-07T04:59:42;16.73;;;5.95;;
37267;SDS011;23154;52.542;13.362;2023-05-07T05:02:08;15.48;;;5.93;;
37267;SDS011;23154;52.542;13.362;2023-05-07T05:04:34;16.73;;;6.00;;
37267;SDS011;23154;52.542;13.362;2023-05-07T05:07:00;16.65;;;6.93;;
37267;SDS011;23154;52.542;13.362;2023-05-07T05:09:28;15.73;;;5.93;;
37267;SDS011;23154;52.542;13.362;2023-05-07T05:11:54;15.73;;;5.72;;
37267;SDS011;23154;52.542;13.362;2023-05-07T05:14:21;14.52;;;5.70;;
37267;SDS011;23154;52.542;13.362;2023-05-07T05:16:47;16.25;;;5.78;;
37267;SDS011;23154;52.542;13.362;2023-05-07T05:19:14;14.40;;;5.60;;
37267;SDS011;23154;52.542;13.362;2023-05-07T05:21:40;18.25;;;6.30;;
37267;SDS011;23154;52.542;13.362;2023-05-07T05:24:06;17.33;;;7.35;;
37267;SDS011;23154;52.542;13.362;2023-05-07T05:26:32;14.90;;;5.60;;
37267;SDS011;23154;52.542;13.362;2023-05-07T05:28:58;18.60;;;5.78;;
37267;SDS011;23154;52.542;13.362;2023-05-07T05:31:24;15.38;;;6.30;;
37267;SDS011;23154;52.542;13.362;2023-05-07T05:33:50;13.63;;;5.80;;
37267;SDS011;23154;52.542;13.362;2023-05-07T05:36:16;14.95;;;6.35;;
37267;SDS011;23154;52.542;13.362;2023-05-07T05:38:42;16.13;;;6.07;;
37267;SDS011;23154;52.542;13.362;2023-05-07T05:41:09;14.38;;;5.43;;
37267;SDS011;23154;52.542;13.362;2023-05-07T05:43:35;14.90;;;6.03;;
37267;SDS011;23154;52.542;13.362;2023-05-07T05:46:02;16.13;;;5.93;;
37267;SDS011;23154;52.542;13.362;2023-05-07T05:48:32;15.95;;;6.60;;
37267;SDS011;23154;52.542;13.362;2023-05-07T05:50:58;16.52;;;6.03;;
37267;SDS011;23154;52.542;13.362;2023-05-07T05:53:24;15.50;;;5.95;;
37267;SDS011;23154;52.542;13.362;2023-05-07T05:55:50;15.20;;;6.18;;
37267;SDS011;23154;52.542;13.362;2023-05-07T05:58:16;15.98;;;6.57;;
37267;SDS011;23154;52.542;13.362;2023-05-07T06:00:42;15.90;;;6.57;;
37267;SDS011;23154;52.542;13.362;2023-05-07T06:03:09;15.45;;;5.82;;
37267;SDS011;23154;52.542;13.362;2023-05-07T06:05:35;17.35;;;6.30;;
37267;SDS011;23154;52.542;13.362;2023-05-07T06:08:01;16.38;;;6.45;;
37267;SDS011;23154;52.542;13.362;2023-05-07T06:10:27;14.95;;;6.07;;
37267;SDS011;23154;52.542;13.362;2023-05-07T06:12:54;14.60;;;5.72;;
37267;SDS011;23154;52.542;13.362;2023-05-07T06:15:20;14.90;;;6.00;;
37267;SDS011;23154;52.542;13.362;2023-05-07T06:17:47;19.40;;;7.72;;
37267;SDS011;23154;52.542;13.362;2023-05-07T06:20:14;15.27;;;5.85;;
37267;SDS011;23154;52.542;13.362;2023-05-07T06:22:40;16.23;;;5.75;;
37267;SDS011;23154;52.542;13.362;2023-05-07T06:25:06;16.33;;;6.82;;
37267;SDS011;23154;52.542;13.362;2023-05-07T06:27:32;16.58;;;6.72;;
37267;SDS011;23154;52.542;13.362;2023-05-07T06:29:58;15.73;;;6.60;;
37267;SDS011;23154;52.542;13.362;2023-05-07T06:32:25;16.60;;;6.72;;
37267;SDS011;23154;52.542;13.362;2023-05-07T06:34:51;16.27;;;6.30;;
37267;SDS011;23154;52.542;13.362;2023-05-07T06:37:17;14.55;;;6.35;;
37267;SDS011;23154;52.542;13.362;2023-05-07T06:39:43;14.25;;;5.72;;
37267;SDS011;23154;52.542;13.362;2023-05-07T06:42:09;16.58;;;5.93;;
37267;SDS011;23154;52.542;13.362;2023-05-07T06:44:35;13.80;;;6.00;;
37267;SDS011;23154;52.542;13.362;2023-05-07T06:47:01;16.17;;;6.50;;
37267;SDS011;23154;52.542;13.362;2023-05-07T06:49:27;15.15;;;6.10;;
37267;SDS011;23154;52.542;13.362;2023-05-07T06:51:53;16.17;;;5.93;;
37267;SDS011;23154;52.542;13.362;2023-05-07T06:54:20;13.52;;;5.57;;
37267;SDS011;23154;52.542;13.362;2023-05-07T06:56:46;13.35;;;5.70;;
37267;SDS011;23154;52.542;13.362;2023-05-07T06:59:12;15.82;;;6.55;;
37267;SDS011;23154;52.542;13.362;2023-05-07T07:01:38;14.10;;;5.45;;
37267;SDS011;23154;52.542;13.362;2023-05-07T07:04:08;16.40;;;6.03;;
37267;SDS011;23154;52.542;13.362;2023-05-07T07:06:34;13.30;;;5.55;;
37267;SDS011;23154;52.542;13.362;2023-05-07T07:09:00;14.05;;;5.60;;
37267;SDS011;23154;52.542;13.362;2023-05-07T07:11:26;15.77;;;5.63;;
37267;SDS011;23154;52.542;13.362;2023-05-07T07:13:52;14.70;;;5.97;;
37267;SDS011;23154;52.542;13.362;2023-05-07T07:16:19;15.57;;;5.70;;
37267;SDS011;23154;52.542;13.362;2023-05-07T07:18:45;14.55;;;5.70;;
37267;SDS011;23154;52.542;13.362;2023-05-07T07:21:11;14.43;;;5.60;;
37267;SDS011;23154;52.542;13.362;2023-05-07T07:23:37;13.02;;;5.57;;
37267;SDS011;23154;52.542;13.362;2023-05-07T07:26:03;12.98;;;4.93;;
37267;SDS011;23154;52.542;13.362;2023-05-07T07:28:31;13.23;;;5.25;;
37267;SDS011;23154;52.542;13.362;2023-05-07T07:30:57;12.20;;;4.88;;
37267;SDS011;23154;52.542;13.362;2023-05-07T07:33:23;10.73;;;5.10;;
37267;SDS011;23154;52.542;13.362;2023-05-07T07:35:49;12.25;;;5.15;;
37267;SDS011;23154;52.542;13.362;2023-05-07T07:38:15;12.65;;;5.35;;
37267;SDS011;23154;52.542;13.362;2023-05-07T07:40:42;12.50;;;5.20;;
37267;SDS011;23154;52.542;13.362;2023-05-07T07:43:09;12.70;;;5.03;;
37267;SDS011;23154;52.542;13.362;2023-05-07T07:45:35;12.68;;;5.00;;
37267;SDS011;23154;52.542;13.362;2023-05-07T07:48:01;12.50;;;5.03;;
37267;SDS011;23154;52.542;13.362;2023-05-07T07:50:27;13.73;;;5.30;;
37267;SDS011;23154;52.542;13.362;2023-05-07T07:52:53;14.18;;;5.78;;
37267;SDS011;23154;52.542;13.362;2023-05-07T07:55:19;13.68;;;5.50;;
37267;SDS011;23154;52.542;13.362;2023-05-07T07:57:48;14.07;;;5.13;;
37267;SDS011;23154;52.542;13.362;2023-05-07T08:00:14;11.68;;;5.07;;
37267;SDS011;23154;52.542;13.362;2023-05-07T08:02:40;11.45;;;5.05;;
37267;SDS011;23154;52.542;13.362;2023-05-07T08:05:06;14.15;;;5.47;;
37267;SDS011;23154;52.542;13.362;2023-05-07T08:07:32;10.88;;;4.82;;
37267;SDS011;23154;52.542;13.362;2023-05-07T08:09:59;13.20;;;5.03;;
37267;SDS011;23154;52.542;13.362;2023-05-07T08:12:26;12.60;;;4.65;;
37267;SDS011;23154;52.542;13.362;2023-05-07T08:14:52;8.90;;;5.25;;
37267;SDS011;23154;52.542;13.362;2023-05-07T08:17:18;12.32;;;4.80;;
37267;SDS011;23154;52.542;13.362;2023-05-07T08:19:47;14.57;;;5.50;;
37267;SDS011;23154;52.542;13.362;2023-05-07T08:22:13;11.05;;;4.88;;
37267;SDS011;23154;52.542;13.362;2023-05-07T08:24:39;10.18;;;4.88;;
37267;SDS011;23154;52.542;13.362;2023-05-07T08:27:05;10.43;;;5.05;;
37267;SDS011;23154;52.542;13.362;2023-05-07T08:29:31;9.68;;;4.90;;
37267;SDS011;23154;52.542;13.362;2023-05-07T08:31:58;9.45;;;5.07;;
37267;SDS011;23154;52.542;13.362;2023-05-07T08:34:24;9.68;;;4.95;;
37267;SDS011;23154;52.542;13.362;2023-05-07T08:36:51;8.85;;;4.93;;
37267;SDS011;23154;52.542;13.362;2023-05-07T08:39:17;11.52;;;5.15;;
37267;SDS011;23154;52.542;13.362;2023-05-07T08:41:46;10.60;;;5.20;;
37267;SDS011;23154;52.542;13.362;2023-05-07T08:44:14;11.45;;;5.20;;
37267;SDS011;23154;52.542;13.362;2023-05-07T08:46:41;12.70;;;5.35;;
37267;SDS011;23154;52.542;13.362;2023-05-07T08:49:09;10.25;;;4.68;;
37267;SDS011;23154;52.542;13.362;2023-05-07T08:51:35;10.27;;;4.80;;
37267;SDS011;23154;52.542;13.362;2023-05-07T08:54:01;12.20;;;5.75;;
37267;SDS011;23154;52.542;13.362;2023-05-07T08:56:27;10.20;;;4.95;;
37267;SDS011;23154;52.542;13.362;2023-05-07T08:58:53;11.48;;;5.25;;
37267;SDS011;23154;52.542;13.362;2023-05-07T09:01:23;10.60;;;5.07;;
37267;SDS011;23154;52.542;13.362;2023-05-07T09:03:50;12.38;;;5.53;;
37267;SDS011;23154;52.542;13.362;2023-05-07T09:06:16;13.27;;;6.35;;
37267;SDS011;23154;52.542;13.362;2023-05-07T09:08:52;12.10;;;6.28;;
37267;SDS011;23154;52.542;13.362;2023-05-07T09:11:22;11.55;;;5.82;;
37267;SDS011;23154;52.542;13.362;2023-05-07T09:13:48;16.30;;;7.07;;
37267;SDS011;23154;52.542;13.362;2023-05-07T09:16:15;10.82;;;5.35;;
37267;SDS011;23154;52.542;13.362;2023-05-07T09:18:41;12.18;;;5.47;;
37267;SDS011;23154;52.542;13.362;2023-05-07T09:21:11;9.70;;;5.35;;
37267;SDS011;23154;52.542;13.362;2023-05-07T09:23:40;11.57;;;5.78;;
37267;SDS011;23154;52.542;13.362;2023-05-07T09:26:07;12.15;;;5.30;;
37267;SDS011;23154;52.542;13.362;2023-05-07T09:28:39;13.20;;;6.20;;
37267;SDS011;23154;52.542;13.362;2023-05-07T09:31:06;9.98;;;5.50;;
37267;SDS011;23154;52.542;13.362;2023-05-07T09:33:32;11.50;;;5.80;;
37267;SDS011;23154;52.542;13.362;2023-05-07T09:36:03;9.75;;;5.43;;
37267;SDS011;23154;52.542;13.362;2023-05-07T09:38:30;13.23;;;6.22;;
37267;SDS011;23154;52.542;13.362;2023-05-07T09:41:09;11.57;;;5.13;;
37267;SDS011;23154;52.542;13.362;2023-05-07T09:43:36;10.10;;;5.57;;
37267;SDS011;23154;52.542;13.362;2023-05-07T09:46:12;10.13;;;5.55;;
37267;SDS011;23154;52.542;13.362;2023-05-07T09:48:39;10.60;;;5.90;;
37267;SDS011;23154;52.542;13.362;2023-05-07T09:51:11;9.15;;;5.13;;
37267;SDS011;23154;52.542;13.362;2023-05-07T09:53:40;10.73;;;5.90;;
37267;SDS011;23154;52.542;13.362;2023-05-07T09:56:07;11.20;;;5.60;;
37267;SDS011;23154;52.542;13.362;2023-05-07T09:58:33;13.07;;;6.10;;
37267;SDS011;23154;52.542;13.362;2023-05-07T10:01:00;10.88;;;5.47;;
37267;SDS011;23154;52.542;13.362;2023-05-07T10:03:28;12.35;;;5.95;;
37267;SDS011;23154;52.542;13.362;2023-05-07T10:05:56;12.18;;;5.80;;
37267;SDS011;23154;52.542;13.362;2023-05-07T10:08:23;11.25;;;5.35;;
37267;SDS011;23154;52.542;13.362;2023-05-07T10:10:50;9.57;;;4.95;;
37267;SDS011;23154;52.542;13.362;2023-05-07T10:13:17;10.13;;;5.15;;
37267;SDS011;23154;52.542;13.362;2023-05-07T10:15:43;9.38;;;5.18;;
37267;SDS011;23154;52.542;13.362;2023-05-07T10:18:09;8.05;;;4.97;;
37267;SDS011;23154;52.542;13.362;2023-05-07T10:20:35;9.15;;;5.25;;
37267;SDS011;23154;52.542;13.362;2023-05-07T10:23:03;9.10;;;4.80;;
37267;SDS011;23154;52.542;13.362;2023-05-07T10:25:30;10.00;;;5.18;;
37267;SDS011;23154;52.542;13.362;2023-05-07T10:27:59;10.13;;;5.38;;
37267;SDS011;23154;52.542;13.362;2023-05-07T10:32:53;7.90;;;4.82;;
37267;SDS011;23154;52.542;13.362;2023-05-07T10:35:21;12.82;;;5.18;;
37267;SDS011;23154;52.542;13.362;2023-05-07T10:37:48;10.43;;;5.43;;
37267;SDS011;23154;52.542;13.362;2023-05-07T10:40:15;10.77;;;5.40;;
37267;SDS011;23154;52.542;13.362;2023-05-07T10:45:29;9.63;;;5.40;;
37267;SDS011;23154;52.542;13.362;2023-05-07T10:48:06;9.07;;;5.60;;
37267;SDS011;23154;52.542;13.362;2023-05-07T10:50:37;9.98;;;6.03;;
37267;SDS011;23154;52.542;13.362;2023-05-07T10:55:48;9.52;;;5.43;;
37267;SDS011;23154;52.542;13.362;2023-05-07T11:00:47;9.25;;;5.82;;
37267;SDS011;23154;52.542;13.362;2023-05-07T11:03:13;8.85;;;5.50;;
37267;SDS011;23154;52.542;13.362;2023-05-07T11:05:40;8.23;;;5.43;;
37267;SDS011;23154;52.542;13.362;2023-05-07T11:08:07;9.18;;;5.70;;
37267;SDS011;23154;52.542;13.362;2023-05-07T11:13:15;10.25;;;5.65;;
37267;SDS011;23154;52.542;13.362;2023-05-07T11:15:42;9.50;;;5.72;;
37267;SDS011;23154;52.542;13.362;2023-05-07T11:18:09;8.32;;;5.30;;
37267;SDS011;23154;52.542;13.362;2023-05-07T11:20:45;11.57;;;6.20;;
37267;SDS011;23154;52.542;13.362;2023-05-07T11:26:00;9.50;;;5.80;;
37267;SDS011;23154;52.542;13.362;2023-05-07T11:28:30;10.57;;;6.30;;
37267;SDS011;23154;52.542;13.362;2023-05-07T11:30:57;12.70;;;7.18;;
37267;SDS011;23154;52.542;13.362;2023-05-07T11:33:23;12.57;;;6.20;;
37267;SDS011;23154;52.542;13.362;2023-05-07T11:35:53;11.57;;;6.63;;
37267;SDS011;23154;52.542;13.362;2023-05-07T11:38:19;12.00;;;6.38;;
37267;SDS011;23154;52.542;13.362;2023-05-07T11:40:49;13.18;;;6.30;;
37267;SDS011;23154;52.542;13.362;2023-05-07T11:43:16;9.90;;;5.80;;
37267;SDS011;23154;52.542;13.362;2023-05-07T11:45:43;12.77;;;6.50;;
37267;SDS011;23154;52.542;13.362;2023-05-07T11:48:16;12.10;;;5.90;;
37267;SDS011;23154;52.542;13.362;2023-05-07T11:50:52;10.63;;;6.22;;
37267;SDS011;23154;52.542;13.362;2023-05-07T11:53:19;10.07;;;6.15;;
37267;SDS011;23154;52.542;13.362;2023-05-07T11:55:46;10.18;;;6.05;;
37267;SDS011;23154;52.542;13.362;2023-05-07T11:58:19;10.50;;;6.00;;
37267;SDS011;23154;52.542;13.362;2023-05-07T12:00:50;10.15;;;6.00;;
37267;SDS011;23154;52.542;13.362;2023-05-07T12:03:16;10.32;;;6.03;;
37267;SDS011;23154;52.542;13.362;2023-05-07T12:05:45;10.23;;;5.68;;
37267;SDS011;23154;52.542;13.362;2023-05-07T12:08:19;9.60;;;6.10;;
37267;SDS011;23154;52.542;13.362;2023-05-07T12:10:49;9.63;;;5.80;;
37267;SDS011;23154;52.542;13.362;2023-05-07T12:13:22;9.57;;;5.95;;
37267;SDS011;23154;52.542;13.362;2023-05-07T12:15:52;12.90;;;6.30;;
37267;SDS011;23154;52.542;13.362;2023-05-07T12:18:19;10.68;;;6.00;;
37267;SDS011;23154;52.542;13.362;2023-05-07T12:20:46;9.95;;;6.32;;
37267;SDS011;23154;52.542;13.362;2023-05-07T12:23:12;9.95;;;6.15;;
37267;SDS011;23154;52.542;13.362;2023-05-07T12:25:39;14.15;;;6.60;;
37267;SDS011;23154;52.542;13.362;2023-05-07T12:28:08;10.93;;;6.53;;
37267;SDS011;23154;52.542;13.362;2023-05-07T12:30:38;12.32;;;6.20;;
37267;SDS011;23154;52.542;13.362;2023-05-07T12:33:05;10.70;;;6.45;;
37267;SDS011;23154;52.542;13.362;2023-05-07T12:35:31;11.30;;;6.50;;
37267;SDS011;23154;52.542;13.362;2023-05-07T12:37:58;10.05;;;6.18;;
37267;SDS011;23154;52.542;13.362;2023-05-07T12:40:43;10.38;;;5.95;;
37267;SDS011;23154;52.542;13.362;2023-05-07T12:43:17;10.32;;;6.30;;
37267;SDS011;23154;52.542;13.362;2023-05-07T12:45:44;9.73;;;6.63;;
37267;SDS011;23154;52.542;13.362;2023-05-07T12:48:11;10.48;;;6.80;;
37267;SDS011;23154;52.542;13.362;2023-05-07T12:50:37;11.40;;;6.35;;
37267;SDS011;23154;52.542;13.362;2023-05-07T12:53:03;11.23;;;6.30;;
37267;SDS011;23154;52.542;13.362;2023-05-07T12:55:40;10.02;;;6.38;;
37267;SDS011;23154;52.542;13.362;2023-05-07T12:58:08;9.65;;;6.38;;
37267;SDS011;23154;52.542;13.362;2023-05-07T13:03:00;10.60;;;6.47;;
37267;SDS011;23154;52.542;13.362;2023-05-07T13:05:26;10.68;;;6.00;;
37267;SDS011;23154;52.542;13.362;2023-05-07T13:07:53;9.82;;;6.55;;
37267;SDS011;23154;52.542;13.362;2023-05-07T13:10:19;10.35;;;6.50;;
37267;SDS011;23154;52.542;13.362;2023-05-07T13:12:45;10.80;;;6.75;;
37267;SDS011;23154;52.542;13.362;2023-05-07T13:15:11;11.75;;;6.70;;
37267;SDS011;23154;52.542;13.362;2023-05-07T13:17:37;11.27;;;6.65;;
37267;SDS011;23154;52.542;13.362;2023-05-07T13:20:03;10.32;;;6.53;;
37267;SDS011;23154;52.542;13.362;2023-05-07T13:22:30;11.63;;;6.50;;
37267;SDS011;23154;52.542;13.362;2023-05-07T13:24:56;9.38;;;6.30;;
37267;SDS011;23154;52.542;13.362;2023-05-07T13:27:22;10.70;;;6.50;;
37267;SDS011;23154;52.542;13.362;2023-05-07T13:29:48;13.55;;;6.70;;
37267;SDS011;23154;52.542;13.362;2023-05-07T13:32:14;10.10;;;6.47;;
37267;SDS011;23154;52.542;13.362;2023-05-07T13:34:40;10.32;;;6.63;;
37267;SDS011;23154;52.542;13.362;2023-05-07T13:37:06;11.65;;;6.90;;
37267;SDS011;23154;52.542;13.362;2023-05-07T13:39:32;10.43;;;6.70;;
37267;SDS011;23154;52.542;13.362;2023-05-07T13:41:58;12.25;;;7.10;;
37267;SDS011;23154;52.542;13.362;2023-05-07T13:44:24;11.73;;;6.85;;
37267;SDS011;23154;52.542;13.362;2023-05-07T13:46:50;10.90;;;6.75;;
37267;SDS011;23154;52.542;13.362;2023-05-07T13:49:16;11.27;;;6.88;;
37267;SDS011;23154;52.542;13.362;2023-05-07T13:51:42;11.43;;;6.80;;
37267;SDS011;23154;52.542;13.362;2023-05-07T13:54:08;10.02;;;6.22;;
37267;SDS011;23154;52.542;13.362;2023-05-07T13:56:34;13.38;;;7.15;;
37267;SDS011;23154;52.542;13.362;2023-05-07T13:59:00;13.02;;;7.50;;
37267;SDS011;23154;52.542;13.362;2023-05-07T14:01:27;9.85;;;6.38;;
37267;SDS011;23154;52.542;13.362;2023-05-07T14:03:53;11.40;;;6.50;;
37267;SDS011;23154;52.542;13.362;2023-05-07T14:06:19;9.70;;;6.57;;
37267;SDS011;23154;52.542;13.362;2023-05-07T14:08:45;10.43;;;6.68;;
37267;SDS011;23154;52.542;13.362;2023-05-07T14:11:11;11.85;;;7.18;;
37267;SDS011;23154;52.542;13.362;2023-05-07T14:13:37;13.70;;;7.55;;
37267;SDS011;23154;52.542;13.362;2023-05-07T14:16:03;11.23;;;6.78;;
37267;SDS011;23154;52.542;13.362;2023-05-07T14:18:30;10.85;;;6.72;;
37267;SDS011;23154;52.542;13.362;2023-05-07T14:20:56;12.15;;;7.53;;
37267;SDS011;23154;52.542;13.362;2023-05-07T14:23:22;11.38;;;7.32;;
37267;SDS011;23154;52.542;13.362;2023-05-07T14:25:51;10.77;;;7.07;;
37267;SDS011;23154;52.542;13.362;2023-05-07T14:28:17;11.75;;;7.32;;
37267;SDS011;23154;52.542;13.362;2023-05-07T14:30:43;11.93;;;6.97;;
37267;SDS011;23154;52.542;13.362;2023-05-07T14:33:09;11.23;;;6.80;;
37267;SDS011;23154;52.542;13.362;2023-05-07T14:35:35;10.88;;;6.68;;
37267;SDS011;23154;52.542;13.362;2023-05-07T14:38:01;11.05;;;6.70;;
37267;SDS011;23154;52.542;13.362;2023-05-07T14:40:27;9.90;;;6.43;;